createdAt,value
2022-09-10T00:01:19.378Z,1.00
2022-09-10T00:03:49.247Z,1.00
2022-09-10T00:06:16.574Z,1.00
2022-09-10T00:08:43.987Z,1.00
2022-09-10T00:11:11.420Z,1.00
2022-09-10T00:13:39.703Z,1.00
2022-09-10T00:16:10.376Z,1.00
2022-09-10T00:18:38.708Z,1.80
2022-09-10T00:21:08.911Z,8.40
2022-09-10T00:23:37.939Z,10.80
2022-09-10T00:26:26.800Z,17.10
2022-09-10T00:28:56.273Z,24.10
2022-09-10T00:31:24.143Z,20.90
2022-09-10T00:33:52.698Z,14.70
2022-09-10T00:36:30.084Z,18.60
2022-09-10T00:39:00.318Z,19.20
2022-09-10T00:41:27.593Z,17.20
2022-09-10T00:44:04.097Z,25.10
2022-09-10T00:46:45.060Z,17.90
2022-09-10T00:49:17.915Z,6.10
2022-09-10T00:51:47.475Z,9.40
2022-09-10T00:54:15.429Z,7.20
2022-09-10T00:56:43.457Z,6.10
2022-09-10T00:59:12.446Z,1.00
2022-09-10T01:01:40.560Z,2.50
2022-09-10T01:04:07.861Z,2.40
2022-09-10T01:06:35.694Z,1.00
2022-09-10T01:09:03.112Z,7.80
2022-09-10T01:11:42.996Z,10.20
2022-09-10T01:14:38.928Z,25.20
2022-09-10T01:17:13.724Z,25.50
2022-09-10T01:20:31.364Z,27.90
2022-09-10T01:23:06.279Z,23.70
2022-09-10T01:25:36.009Z,24.90
2022-09-10T01:28:13.365Z,26.60
2022-09-10T01:30:48.730Z,30.50
2022-09-10T01:33:34.189Z,36.50
2022-09-10T01:36:06.943Z,18.40
2022-09-10T01:38:35.894Z,25.30
2022-09-10T01:41:02.876Z,24.50
2022-09-10T01:43:29.845Z,22.90
2022-09-10T01:46:20.695Z,21.20
2022-09-10T01:49:02.366Z,17.60
2022-09-10T01:52:05.954Z,1.00
2022-09-10T01:54:58.596Z,5.00
2022-09-10T01:57:37.355Z,12.30
2022-09-10T02:00:18.373Z,2.40
2022-09-10T02:03:11.477Z,1.20
2022-09-10T02:05:41.906Z,4.10
2022-09-10T02:08:31.941Z,7.50
2022-09-10T02:11:06.525Z,5.00
2022-09-10T02:13:35.551Z,2.70
2022-09-10T02:16:06.331Z,11.10
2022-09-10T02:18:34.218Z,11.20
2022-09-10T02:21:06.405Z,13.00
2022-09-10T02:23:50.270Z,4.40
2022-09-10T02:26:17.289Z,12.70
2022-09-10T02:28:44.767Z,17.10
2022-09-10T02:31:12.633Z,12.30
2022-09-10T02:33:39.607Z,10.90
2022-09-10T02:36:06.629Z,14.80
2022-09-10T02:38:34.364Z,1.00
2022-09-10T02:41:01.402Z,1.00
2022-09-10T02:43:29.337Z,1.00
2022-09-10T02:45:57.538Z,1.00
2022-09-10T02:48:26.274Z,1.00
2022-09-10T02:50:54.187Z,1.00
2022-09-10T02:53:21.389Z,1.00
2022-09-10T02:55:48.827Z,1.00
2022-09-10T02:58:16.888Z,1.00
2022-09-10T03:00:44.735Z,1.00
2022-09-10T03:03:12.796Z,1.00
2022-09-10T03:05:41.703Z,1.00
2022-09-10T03:08:09.553Z,1.00
2022-09-10T03:10:38.596Z,1.00
2022-09-10T03:13:05.474Z,1.00
2022-09-10T03:15:32.364Z,1.00
2022-09-10T03:17:59.341Z,1.00
2022-09-10T03:20:26.366Z,1.00
2022-09-10T03:22:53.334Z,1.00
2022-09-10T03:25:20.476Z,1.00
2022-09-10T03:27:47.365Z,1.00
2022-09-10T03:30:14.311Z,1.00
2022-09-10T03:32:42.006Z,1.00
2022-09-10T03:35:10.285Z,1.00
2022-09-10T03:37:37.364Z,1.00
2022-09-10T03:40:05.857Z,1.00
2022-09-10T03:42:32.847Z,1.00
2022-09-10T03:44:59.793Z,1.00
2022-09-10T03:47:27.223Z,1.00
2022-09-10T03:49:54.242Z,1.00
2022-09-10T03:52:22.817Z,1.00
2022-09-10T03:54:51.227Z,1.00
2022-09-10T03:57:18.356Z,1.00
2022-09-10T03:59:46.169Z,1.00
2022-09-10T04:02:13.336Z,1.00
2022-09-10T04:04:41.072Z,1.00
2022-09-10T04:07:09.478Z,1.00
2022-09-10T04:09:37.182Z,1.00
2022-09-10T04:12:04.430Z,1.00
2022-09-10T04:14:31.332Z,3.40
2022-09-10T04:16:59.062Z,11.00
2022-09-10T04:19:27.925Z,13.80
2022-09-10T04:21:54.901Z,17.50
2022-09-10T04:24:21.881Z,20.50
2022-09-10T04:26:48.858Z,23.70
2022-09-10T04:29:16.271Z,30.10
2022-09-10T04:31:43.343Z,29.60
2022-09-10T04:34:10.658Z,34.20
2022-09-10T04:36:37.575Z,33.10
2022-09-10T04:39:04.611Z,45.60
2022-09-10T04:41:31.507Z,37.20
2022-09-10T04:43:58.821Z,40.40
2022-09-10T04:46:26.342Z,33.30
2022-09-10T04:48:53.271Z,35.70
2022-09-10T04:51:20.189Z,35.00
2022-09-10T04:53:47.137Z,35.30
2022-09-10T04:56:14.614Z,31.70
2022-09-10T04:58:42.406Z,30.90
2022-09-10T05:01:10.162Z,23.80
2022-09-10T05:03:37.443Z,26.50
2022-09-10T05:06:05.284Z,27.50
2022-09-10T05:08:32.386Z,33.10
2022-09-10T05:11:01.274Z,29.80
2022-09-10T05:13:31.212Z,33.30
2022-09-10T05:15:59.584Z,24.50
2022-09-10T05:18:26.642Z,33.00
2022-09-10T05:20:53.587Z,34.60
2022-09-10T05:23:20.522Z,26.50
2022-09-10T05:25:48.864Z,17.20
2022-09-10T05:28:16.532Z,22.70
2022-09-10T05:30:49.531Z,21.80
2022-09-10T05:33:18.463Z,23.60
2022-09-10T05:35:45.402Z,23.10
2022-09-10T05:38:12.632Z,17.40
2022-09-10T05:40:42.948Z,15.80
2022-09-10T05:43:11.841Z,11.70
2022-09-10T05:45:38.968Z,15.20
2022-09-10T05:48:05.988Z,5.40
2022-09-10T05:50:33.306Z,1.00
2022-09-10T05:53:01.358Z,4.10
2022-09-10T05:55:30.474Z,1.00
2022-09-10T05:57:58.608Z,1.00
2022-09-10T06:00:25.651Z,1.00
2022-09-10T06:02:53.400Z,1.00
2022-09-10T06:05:23.348Z,1.00
2022-09-10T06:07:50.868Z,1.00
2022-09-10T06:10:18.145Z,1.00
2022-09-10T06:12:49.725Z,1.00
2022-09-10T06:15:16.719Z,1.00
2022-09-10T06:17:43.712Z,1.00
2022-09-10T06:20:11.187Z,1.00
2022-09-10T06:22:38.247Z,1.00
2022-09-10T06:25:06.493Z,1.00
2022-09-10T06:27:34.523Z,1.00
2022-09-10T06:30:01.398Z,1.00
2022-09-10T06:32:28.302Z,1.00
2022-09-10T06:34:55.360Z,1.00
2022-09-10T06:37:23.762Z,1.00
2022-09-10T06:39:51.154Z,1.00
2022-09-10T06:42:18.126Z,1.00
2022-09-10T06:44:45.310Z,1.00
2022-09-10T06:50:01.127Z,1.00
2022-09-10T06:52:31.111Z,1.00
2022-09-10T06:54:58.063Z,1.00
2022-09-10T06:57:29.452Z,1.00
2022-09-10T06:59:56.415Z,1.00
2022-09-10T07:02:23.512Z,1.00
2022-09-10T07:04:50.522Z,1.00
2022-09-10T07:07:17.556Z,1.00
2022-09-10T07:09:44.555Z,1.00
2022-09-10T07:12:11.496Z,1.00
2022-09-10T07:14:38.374Z,1.00
2022-09-10T07:17:05.735Z,3.90
2022-09-10T07:19:33.412Z,45.10
2022-09-10T07:22:01.377Z,13.80
2022-09-10T07:24:28.716Z,15.50
2022-09-10T07:26:57.075Z,37.10
2022-09-10T07:29:24.099Z,60.50
2022-09-10T07:31:51.050Z,70.50
2022-09-10T07:34:18.010Z,99.90
2022-09-10T07:36:44.880Z,47.00
2022-09-10T07:39:11.773Z,99.90
2022-09-10T07:41:38.769Z,99.70
2022-09-10T07:44:05.799Z,94.10
2022-09-10T07:46:32.824Z,99.70
2022-09-10T07:49:01.218Z,90.70
2022-09-10T07:51:30.349Z,46.40
2022-09-10T07:53:59.370Z,50.20
2022-09-10T07:56:26.731Z,28.60
2022-09-10T07:58:57.120Z,1.00
2022-09-10T08:01:24.512Z,1.00
2022-09-10T08:03:51.716Z,1.00
2022-09-10T08:06:19.535Z,1.00
2022-09-10T08:08:46.503Z,1.00
2022-09-10T08:11:20.537Z,1.00
2022-09-10T08:13:49.374Z,1.00
2022-09-10T08:16:19.305Z,1.00
2022-09-10T08:18:47.921Z,1.00
2022-09-10T08:21:16.478Z,1.00
2022-09-10T08:23:48.867Z,1.00
2022-09-10T08:26:15.775Z,1.00
2022-09-10T08:28:44.247Z,1.00
2022-09-10T08:31:12.952Z,10.10
2022-09-10T08:33:40.343Z,59.70
2022-09-10T08:36:10.556Z,99.90
2022-09-10T08:38:41.066Z,98.60
2022-09-10T08:41:21.982Z,99.90
2022-09-10T08:43:55.033Z,99.90
2022-09-10T08:46:29.681Z,99.90
2022-09-10T08:49:31.791Z,99.90
2022-09-10T08:52:14.282Z,99.90
2022-09-10T08:55:11.450Z,99.90
2022-09-10T08:57:45.373Z,99.90
2022-09-10T09:00:24.264Z,99.90
2022-09-10T09:03:11.980Z,99.90
2022-09-10T09:05:58.178Z,99.90
2022-09-10T09:08:28.443Z,99.90
2022-09-10T09:11:33.637Z,99.90
2022-09-10T09:14:34.359Z,99.90
2022-09-10T09:17:05.552Z,99.90
2022-09-10T09:19:44.702Z,99.90
2022-09-10T09:22:28.899Z,99.90
2022-09-10T09:25:00.992Z,99.90
2022-09-10T09:27:32.308Z,99.90
2022-09-10T09:30:05.269Z,99.90
2022-09-10T09:32:35.769Z,99.90
2022-09-10T09:35:30.650Z,99.90
2022-09-10T09:38:19.408Z,99.90
2022-09-10T09:40:49.810Z,58.70
2022-09-10T09:43:49.834Z,38.30
2022-09-10T09:46:21.407Z,1.00
2022-09-10T09:48:53.631Z,1.00
2022-09-10T09:51:21.707Z,1.00
2022-09-10T09:54:12.189Z,1.00
2022-09-10T09:56:45.899Z,1.00
2022-09-10T09:59:26.889Z,1.00
2022-09-10T10:02:10.103Z,1.00
2022-09-10T10:04:41.488Z,1.00
2022-09-10T10:07:09.611Z,1.00
2022-09-10T10:09:43.215Z,99.90
2022-09-10T10:12:20.873Z,1.00
2022-09-10T10:14:47.891Z,1.00
2022-09-10T10:17:38.619Z,99.90
2022-09-10T10:20:13.182Z,99.90
2022-09-10T10:22:45.619Z,1.00
2022-09-10T10:25:38.821Z,1.00
2022-09-10T10:28:20.180Z,1.00
2022-09-10T10:30:55.972Z,99.90
2022-09-10T10:33:32.106Z,1.00
2022-09-10T10:36:04.884Z,1.00
2022-09-10T10:38:40.404Z,1.00
2022-09-10T10:41:30.530Z,99.90
2022-09-10T10:44:14.927Z,1.00
2022-09-10T10:47:03.748Z,1.00
2022-09-10T10:50:00.336Z,1.00
2022-09-10T10:52:30.123Z,1.00
2022-09-10T10:54:56.963Z,1.00
2022-09-10T10:57:43.382Z,99.90
2022-09-10T11:00:15.126Z,1.00
2022-09-10T11:02:53.188Z,99.90
2022-09-10T11:05:38.471Z,99.90
2022-09-10T11:08:24.018Z,1.00
2022-09-10T11:11:00.538Z,99.90
2022-09-10T11:13:39.562Z,99.90
2022-09-10T11:16:15.224Z,99.90
2022-09-10T11:19:04.619Z,1.00
2022-09-10T11:21:40.974Z,62.00
2022-09-10T11:24:41.560Z,1.00
2022-09-10T11:27:33.463Z,1.00
2022-09-10T11:30:12.503Z,1.00
2022-09-10T11:32:44.854Z,1.00
2022-09-10T11:35:23.567Z,99.90
2022-09-10T11:38:27.456Z,16.80
2022-09-10T11:41:16.156Z,1.00
2022-09-10T11:43:56.292Z,1.00
2022-09-10T11:46:36.399Z,1.00
2022-09-10T11:49:16.735Z,1.00
2022-09-10T11:51:45.267Z,1.00
2022-09-10T11:54:23.520Z,1.00
2022-09-10T11:57:19.732Z,1.00
2022-09-10T12:00:11.989Z,1.00
2022-09-10T12:03:13.902Z,4.70
2022-09-10T12:05:44.515Z,98.60
2022-09-10T12:08:23.633Z,99.90
2022-09-10T12:11:18.976Z,99.90
2022-09-10T12:13:47.103Z,99.90
2022-09-10T12:16:29.550Z,99.90
2022-09-10T12:18:59.697Z,99.90
2022-09-10T12:21:32.917Z,99.90
2022-09-10T12:24:03.635Z,99.90
2022-09-10T12:26:44.961Z,99.90
2022-09-10T12:29:35.143Z,99.90
2022-09-10T12:32:19.914Z,99.90
2022-09-10T12:34:51.607Z,99.90
2022-09-10T12:37:24.451Z,99.90
2022-09-10T12:40:26.443Z,99.90
2022-09-10T12:42:59.487Z,99.90
2022-09-10T12:46:05.613Z,99.90
2022-09-10T12:48:35.960Z,99.90
2022-09-10T12:51:17.026Z,99.90
2022-09-10T12:53:59.155Z,58.00
2022-09-10T12:56:57.693Z,30.80
2022-09-10T12:59:43.049Z,33.80
2022-09-10T13:02:21.943Z,15.90
2022-09-10T13:05:23.142Z,11.10
2022-09-10T13:08:18.871Z,18.70
2022-09-10T13:10:50.227Z,38.90
2022-09-10T13:13:37.276Z,97.10
2022-09-10T13:16:09.077Z,1.00
2022-09-10T13:18:37.614Z,1.00
2022-09-10T13:21:22.936Z,99.90
2022-09-10T13:23:58.962Z,1.00
2022-09-10T13:26:47.303Z,1.00
2022-09-10T13:29:29.743Z,1.00
2022-09-10T13:32:30.623Z,1.00
2022-09-10T13:35:21.736Z,99.90
2022-09-10T13:38:14.283Z,16.20
2022-09-10T13:41:15.002Z,1.00
2022-09-10T13:43:53.853Z,99.90
2022-09-10T13:46:26.979Z,99.90
2022-09-10T13:49:26.444Z,99.90
2022-09-10T13:51:57.035Z,70.60
2022-09-10T13:54:43.567Z,18.80
2022-09-10T13:57:15.938Z,28.50
2022-09-10T13:59:43.701Z,63.10
2022-09-10T14:02:10.709Z,74.60
2022-09-10T14:04:44.404Z,99.90
2022-09-10T14:07:21.148Z,99.90
2022-09-10T14:09:53.573Z,99.90
2022-09-10T14:12:26.512Z,99.90
2022-09-10T14:14:59.207Z,99.90
2022-09-10T14:17:35.631Z,1.00
2022-09-10T14:20:18.096Z,1.00
2022-09-10T14:22:45.439Z,99.90
2022-09-10T14:25:38.414Z,99.90
2022-09-10T14:28:17.357Z,99.90
2022-09-10T14:30:45.691Z,99.90
2022-09-10T14:33:35.558Z,99.90
2022-09-10T14:36:23.484Z,99.90
2022-09-10T14:39:18.085Z,99.90
2022-09-10T14:41:45.711Z,99.90
2022-09-10T14:44:27.838Z,99.90
2022-09-10T14:46:57.576Z,99.90
2022-09-10T14:49:29.264Z,99.90
2022-09-10T14:51:58.592Z,99.90
2022-09-10T14:54:32.278Z,1.00
2022-09-10T14:57:04.019Z,1.00
2022-09-10T14:59:36.351Z,1.00
2022-09-10T15:02:14.105Z,99.90
2022-09-10T15:04:41.037Z,99.90
2022-09-10T15:07:09.876Z,99.90
2022-09-10T15:09:36.847Z,99.90
2022-09-10T15:12:23.907Z,99.90
2022-09-10T15:14:51.988Z,99.90
2022-09-10T15:17:19.183Z,99.90
2022-09-10T15:19:50.044Z,99.90
2022-09-10T15:22:23.457Z,99.90
2022-09-10T15:25:10.069Z,99.90
2022-09-10T15:27:37.731Z,99.90
2022-09-10T15:30:05.652Z,99.90
2022-09-10T15:32:32.645Z,99.90
2022-09-10T15:34:59.884Z,99.90
2022-09-10T15:37:27.181Z,99.90
2022-09-10T15:39:54.799Z,99.90
2022-09-10T15:42:21.786Z,99.90
2022-09-10T15:44:48.740Z,1.00
2022-09-10T15:47:15.672Z,1.00
2022-09-10T15:49:42.616Z,1.00
2022-09-10T15:52:10.118Z,1.00
2022-09-10T15:54:37.062Z,1.00
2022-09-10T15:57:04.048Z,1.00
2022-09-10T15:59:30.960Z,1.00
2022-09-10T16:01:58.506Z,1.00
2022-09-10T16:04:25.729Z,1.00
2022-09-10T16:06:52.684Z,99.90
2022-09-10T16:09:19.593Z,99.90
2022-09-10T16:11:46.749Z,99.90
2022-09-10T16:14:16.149Z,99.90
2022-09-10T16:16:43.315Z,99.90
2022-09-10T16:19:13.001Z,1.00
2022-09-10T16:21:39.977Z,1.00
2022-09-10T16:24:07.418Z,1.00
2022-09-10T16:26:37.496Z,1.00
2022-09-10T16:29:07.699Z,1.00
2022-09-10T16:31:36.406Z,1.00
2022-09-10T16:34:05.419Z,1.00
2022-09-10T16:36:34.463Z,1.00
2022-09-10T16:39:02.308Z,1.00
2022-09-10T16:41:29.894Z,99.90
2022-09-10T16:44:00.907Z,99.90
2022-09-10T16:46:28.312Z,99.90
2022-09-10T16:48:56.456Z,1.00
2022-09-10T16:51:25.348Z,1.00
2022-09-10T16:54:03.915Z,99.90
2022-09-10T16:56:34.883Z,99.90
2022-09-10T16:59:02.337Z,1.00
2022-09-10T17:01:29.702Z,7.30
2022-09-10T17:03:56.692Z,99.90
2022-09-10T17:06:26.624Z,1.00
2022-09-10T17:08:55.300Z,1.00
2022-09-10T17:11:22.953Z,1.00
2022-09-10T17:13:51.014Z,99.90
2022-09-10T17:16:29.599Z,99.90
2022-09-10T17:19:11.008Z,1.00
2022-09-10T17:21:39.676Z,1.00
2022-09-10T17:24:08.998Z,1.00
2022-09-10T17:26:37.267Z,99.90
2022-09-10T17:29:10.009Z,27.40
2022-09-10T17:31:37.137Z,1.00
2022-09-10T17:34:04.193Z,1.00
2022-09-10T17:36:32.157Z,99.90
2022-09-10T17:38:59.768Z,1.00
2022-09-10T17:41:28.560Z,99.90
2022-09-10T17:43:55.691Z,14.40
2022-09-10T17:46:24.147Z,1.00
2022-09-10T17:48:52.467Z,1.00
2022-09-10T17:51:27.909Z,99.90
2022-09-10T17:53:55.963Z,1.00
2022-09-10T17:56:25.638Z,63.50
2022-09-10T17:58:58.043Z,99.90
2022-09-10T18:01:33.162Z,1.00
2022-09-10T18:04:00.162Z,1.00
2022-09-10T18:06:29.334Z,1.00
2022-09-10T18:09:00.777Z,1.00
2022-09-10T18:11:30.923Z,99.90
2022-09-10T18:13:58.757Z,99.90
2022-09-10T18:16:28.591Z,1.00
2022-09-10T18:19:01.891Z,1.00
2022-09-10T18:21:31.861Z,1.00
2022-09-10T18:24:01.417Z,1.00
2022-09-10T18:26:32.086Z,31.80
2022-09-10T18:29:02.094Z,87.70
2022-09-10T18:31:31.883Z,94.20
2022-09-10T18:34:00.670Z,91.20
2022-09-10T18:36:28.843Z,99.90
2022-09-10T18:38:55.855Z,99.90
2022-09-10T18:41:28.397Z,99.90
2022-09-10T18:43:58.707Z,99.90
2022-09-10T18:46:26.935Z,99.90
2022-09-10T18:48:53.924Z,99.90
2022-09-10T18:51:23.184Z,99.90
2022-09-10T18:53:53.584Z,99.90
2022-09-10T18:56:25.533Z,99.90
2022-09-10T18:58:58.630Z,99.90
2022-09-10T19:01:28.013Z,99.90
2022-09-10T19:03:57.608Z,99.90
2022-09-10T19:06:27.057Z,99.90
2022-09-10T19:09:04.527Z,99.90
2022-09-10T19:11:34.331Z,99.90
2022-09-10T19:14:03.133Z,99.90
2022-09-10T19:16:32.025Z,99.90
2022-09-10T19:19:01.295Z,99.90
2022-09-10T19:21:30.154Z,99.90
2022-09-10T19:23:59.569Z,99.90
2022-09-10T19:26:29.191Z,99.90
2022-09-10T19:28:57.597Z,99.90
2022-09-10T19:31:26.062Z,99.90
2022-09-10T19:33:58.248Z,99.90
2022-09-10T19:36:30.473Z,99.90
2022-09-10T19:38:59.619Z,99.90
2022-09-10T19:41:27.146Z,99.90
2022-09-10T19:43:55.016Z,99.90
2022-09-10T19:46:25.004Z,99.90
2022-09-10T19:48:53.331Z,99.90
2022-09-10T19:51:21.919Z,99.90
2022-09-10T19:53:52.449Z,99.90
2022-09-10T19:56:23.642Z,99.90
2022-09-10T19:58:52.822Z,99.90
2022-09-10T20:01:31.285Z,99.90
2022-09-10T20:04:01.144Z,99.90
2022-09-10T20:06:29.965Z,99.90
2022-09-10T20:08:57.524Z,99.90
2022-09-10T20:11:27.719Z,99.90
2022-09-10T20:14:00.154Z,99.90
2022-09-10T20:16:27.768Z,99.90
2022-09-10T20:18:55.042Z,99.90
2022-09-10T20:21:28.272Z,99.90
2022-09-10T20:23:56.484Z,99.90
2022-09-10T20:26:37.470Z,99.90
2022-09-10T20:29:07.639Z,99.90
2022-09-10T20:31:36.649Z,99.90
2022-09-10T20:34:06.536Z,99.90
2022-09-10T20:36:35.109Z,99.90
2022-09-10T20:39:02.718Z,99.90
2022-09-10T20:41:30.559Z,99.90
2022-09-10T20:43:59.695Z,99.90
2022-09-10T20:46:29.012Z,99.90
2022-09-10T20:49:04.975Z,99.90
2022-09-10T20:51:39.197Z,99.90
2022-09-10T20:54:07.759Z,99.90
2022-09-10T20:56:34.790Z,99.90
2022-09-10T20:59:02.449Z,99.90
2022-09-10T21:01:33.228Z,99.90
2022-09-10T21:04:01.467Z,99.90
2022-09-10T21:06:31.311Z,99.90
2022-09-10T21:08:59.083Z,99.90
2022-09-10T21:11:29.366Z,99.90
2022-09-10T21:13:59.082Z,99.90
2022-09-10T21:16:33.998Z,99.90
2022-09-10T21:19:04.391Z,99.90
2022-09-10T21:21:34.205Z,99.90
2022-09-10T21:24:03.495Z,99.90
2022-09-10T21:26:33.079Z,99.90
2022-09-10T21:29:04.740Z,99.90
2022-09-10T21:31:32.614Z,99.90
2022-09-10T21:34:03.156Z,99.90
2022-09-10T21:36:31.941Z,99.90
2022-09-10T21:39:00.921Z,99.90
2022-09-10T21:41:32.499Z,99.90
2022-09-10T21:44:01.402Z,99.90
2022-09-10T21:46:29.547Z,99.90
2022-09-10T21:48:57.115Z,99.90
2022-09-10T21:51:24.514Z,99.90
2022-09-10T21:53:56.202Z,99.90
2022-09-10T21:56:25.982Z,99.90
2022-09-10T21:58:53.802Z,99.90
2022-09-10T22:01:22.881Z,99.90
2022-09-10T22:03:52.664Z,99.90
2022-09-10T22:06:23.212Z,99.90
2022-09-10T22:09:01.765Z,99.90
2022-09-10T22:11:34.392Z,99.90
2022-09-10T22:14:03.754Z,99.90
2022-09-10T22:16:32.018Z,99.90
2022-09-10T22:19:01.505Z,99.90
2022-09-10T22:21:29.090Z,99.90
2022-09-10T22:23:56.324Z,99.90
2022-09-10T22:26:26.041Z,99.90
2022-09-10T22:28:59.465Z,99.90
2022-09-10T22:31:32.814Z,99.90
2022-09-10T22:34:01.954Z,99.90
2022-09-10T22:36:31.787Z,99.90
2022-09-10T22:39:14.868Z,99.90
2022-09-10T22:41:42.789Z,99.90
2022-09-10T22:44:10.058Z,99.90
2022-09-10T22:46:38.349Z,99.90
2022-09-10T22:49:06.156Z,99.90
2022-09-10T22:51:36.107Z,99.90
2022-09-10T22:54:04.453Z,99.90
2022-09-10T22:56:31.903Z,99.90
2022-09-10T22:58:59.875Z,99.90
2022-09-10T23:01:29.780Z,99.90
2022-09-10T23:04:00.843Z,99.90
2022-09-10T23:06:31.238Z,99.90
2022-09-10T23:09:05.083Z,99.90
2022-09-10T23:11:33.221Z,99.90
2022-09-10T23:14:06.612Z,99.90
2022-09-10T23:16:38.942Z,99.90
2022-09-10T23:19:09.567Z,99.90
2022-09-10T23:21:40.177Z,99.90
2022-09-10T23:24:10.755Z,99.90
2022-09-10T23:26:37.684Z,99.90
2022-09-10T23:29:05.453Z,99.90
2022-09-10T23:31:34.755Z,99.90
2022-09-10T23:34:04.959Z,99.90
2022-09-10T23:36:34.817Z,99.90
2022-09-10T23:39:06.165Z,99.90
2022-09-10T23:41:33.707Z,99.90
2022-09-10T23:44:00.733Z,99.90
2022-09-10T23:46:27.803Z,99.90
2022-09-10T23:48:54.876Z,99.90
2022-09-10T23:51:22.483Z,99.90
2022-09-10T23:53:50.196Z,99.90
2022-09-10T23:56:19.670Z,99.90
2022-09-10T23:58:47.799Z,99.90
